Time;durP1;ratioP1;P1;durP2;ratioP2;P2;SDS_P1;SDS_P2;PMS_P1;PMS_P2;Temp;Humidity;BMP_temperature;BMP_pressure;BME280_temperature;BME280_humidity;BME280_pressure;Samples;Min_cycle;Max_cycle;Signal;HPM_P1;HPM_P2
2022/12/26 00:01:06;;;;;;;41.93;20.87;;;;;;;18.48;52.61;101033.34;5130812;27;20038;-66
2022/12/26 00:03:31;;;;;;;47.13;22.73;;;;;;;17.94;52.69;101038.09;5130597;27;20118;-66
2022/12/26 00:05:57;;;;;;;44.20;21.43;;;;;;;18.00;54.99;101047.56;5130622;27;20102;-66
2022/12/26 00:08:22;;;;;;;41.00;20.70;;;;;;;18.26;52.12;101045.72;5114786;27;20541;-66
2022/12/26 00:10:48;;;;;;;43.30;21.47;;;;;;;17.62;53.87;101041.88;5112506;27;20019;-66
2022/12/26 00:13:13;;;;;;;40.30;19.77;;;;;;;17.96;54.06;101051.25;5114009;27;20023;-66
2022/12/26 00:15:39;;;;;;;42.13;20.93;;;;;;;18.32;52.61;101050.75;5133298;27;20023;-66
2022/12/26 00:18:05;;;;;;;43.67;21.77;;;;;;;17.72;54.89;101053.88;5133126;27;20072;-66
2022/12/26 00:20:30;;;;;;;46.63;22.37;;;;;;;17.85;54.67;101058.69;5130778;27;20478;-66
2022/12/26 00:22:56;;;;;;;44.77;22.37;;;;;;;16.85;57.51;101062.97;5131817;27;20126;-66
2022/12/26 00:25:21;;;;;;;39.77;21.60;;;;;;;17.46;56.19;101068.88;5131155;27;20096;-65
2022/12/26 00:27:46;;;;;;;47.97;22.50;;;;;;;17.62;55.91;101073.59;5092991;28;20053;-66
2022/12/26 00:30:12;;;;;;;44.17;23.10;;;;;;;17.58;55.40;101062.25;5127921;27;20084;-66
2022/12/26 00:32:37;;;;;;;52.67;23.60;;;;;;;17.86;54.16;101066.56;5131082;27;20075;-65
2022/12/26 00:35:03;;;;;;;49.80;24.10;;;;;;;17.30;57.28;101063.25;5130854;27;20027;-65
2022/12/26 00:37:28;;;;;;;49.03;23.93;;;;;;;17.41;56.97;101062.88;5132707;27;20057;-66
2022/12/26 00:39:53;;;;;;;46.77;23.77;;;;;;;18.29;53.03;101059.69;5113201;27;20110;-66
2022/12/26 00:42:19;;;;;;;43.17;23.00;;;;;;;18.56;52.62;101056.88;5131455;27;20027;-66
2022/12/26 00:44:44;;;;;;;41.73;22.63;;;;;;;18.47;52.90;101063.38;5112157;28;20019;-66
2022/12/26 00:47:09;;;;;;;40.97;22.40;;;;;;;18.31;53.37;101064.91;5132040;27;20114;-66
2022/12/26 00:49:35;;;;;;;44.60;22.97;;;;;;;18.33;52.33;101065.72;5130953;27;20050;-66
2022/12/26 00:52:00;;;;;;;41.33;22.33;;;;;;;18.19;53.23;101062.72;5113182;27;20080;-66
2022/12/26 00:54:26;;;;;;;40.67;21.87;;;;;;;18.25;52.76;101065.16;5111057;27;20020;-66
2022/12/26 00:56:51;;;;;;;43.60;21.70;;;;;;;17.94;53.09;101068.94;5114196;27;20026;-66
2022/12/26 00:59:16;;;;;;;45.73;23.07;;;;;;;17.77;54.81;101062.47;5132451;27;20048;-66
2022/12/26 01:01:42;;;;;;;43.80;23.23;;;;;;;18.24;52.92;101061.63;5130856;27;20072;-66
2022/12/26 01:04:07;;;;;;;44.97;23.07;;;;;;;17.34;56.01;101056.09;5129157;27;20047;-66
2022/12/26 01:06:32;;;;;;;48.97;24.83;;;;;;;18.02;53.52;101042.22;5131017;27;20026;-66
2022/12/26 01:08:58;;;;;;;50.13;26.37;;;;;;;17.73;54.54;101050.28;5130482;27;20019;-65
2022/12/26 01:11:39;;;;;;;46.60;25.10;;;;;;;18.35;53.36;101048.00;5131111;27;20055;-66
2022/12/26 01:14:16;;;;;;;46.77;25.17;;;;;;;17.35;55.67;101055.16;5130404;27;20027;-66
2022/12/26 01:16:43;;;;;;;46.37;24.10;;;;;;;17.74;55.07;101049.38;5112812;27;20052;-66
2022/12/26 01:19:10;;;;;;;43.40;23.23;;;;;;;17.09;56.29;101043.72;5130637;27;20038;-66
2022/12/26 01:21:37;;;;;;;42.67;23.07;;;;;;;17.11;56.81;101049.78;5108985;27;20023;-66
2022/12/26 01:24:03;;;;;;;45.33;23.40;;;;;;;17.03;56.80;101043.91;5110711;27;20027;-66
2022/12/26 01:26:28;;;;;;;41.27;23.40;;;;;;;17.19;57.92;101046.06;5113669;28;20019;-66
2022/12/26 01:28:53;;;;;;;45.43;22.77;;;;;;;18.28;53.39;101052.66;5113645;28;20035;-66
2022/12/26 01:31:21;;;;;;;42.93;23.57;;;;;;;18.00;54.79;101042.28;5094417;28;20063;-66
2022/12/26 01:33:47;;;;;;;37.90;20.40;;;;;;;17.58;55.50;101050.84;5111657;28;20376;-66
2022/12/26 01:36:13;;;;;;;36.80;21.57;;;;;;;17.75;55.22;101042.28;5095948;28;20075;-65
2022/12/26 01:38:38;;;;;;;40.57;20.87;;;;;;;18.13;53.13;101051.50;5130983;28;20531;-66
2022/12/26 01:41:16;;;;;;;35.93;19.53;;;;;;;17.05;56.40;101052.66;5130901;28;20538;-66
2022/12/26 01:43:56;;;;;;;37.93;19.33;;;;;;;16.98;57.28;101051.16;5130057;28;20062;-66
2022/12/26 01:46:43;;;;;;;32.80;19.17;;;;;;;17.60;55.70;101059.59;5112145;28;20031;-66
2022/12/26 01:49:18;;;;;;;33.57;19.27;;;;;;;16.95;57.39;101051.22;5130660;28;20428;-66
2022/12/26 01:51:51;;;;;;;34.03;18.23;;;;;;;16.94;57.27;101054.78;5130628;28;20119;-66
2022/12/26 01:54:17;;;;;;;34.70;17.67;;;;;;;16.92;56.27;101062.75;5110048;28;20114;-66
2022/12/26 01:56:45;;;;;;;31.43;18.93;;;;;;;17.77;55.32;101062.47;5132604;27;20118;-67
2022/12/26 01:59:17;;;;;;;33.23;18.00;;;;;;;17.03;57.53;101058.91;5135175;27;20034;-66
2022/12/26 02:01:46;;;;;;;33.72;19.15;;;;;;;17.71;55.30;101065.34;5135847;27;20031;-66
2022/12/26 02:07:02;;;;;;;32.20;18.03;;;;;;;17.27;55.38;101059.84;5133069;27;20142;-66
2022/12/26 02:09:28;;;;;;;32.50;17.23;;;;;;;17.90;55.05;101046.16;5117295;27;20050;-66
2022/12/26 02:12:01;;;;;;;34.27;18.30;;;;;;;17.50;55.09;101058.19;5134808;27;20422;-66
2022/12/26 02:14:26;;;;;;;30.45;18.10;;;;;;;18.28;52.73;101055.31;5134543;27;20429;-66
2022/12/26 02:16:52;;;;;;;36.73;17.80;;;;;;;18.15;52.51;101067.31;5134362;27;20031;-66
2022/12/26 02:19:44;;;;;;;32.90;18.67;;;;;;;18.09;53.56;101062.22;5113556;27;20030;-67
2022/12/26 02:22:19;;;;;;;31.20;18.17;;;;;;;16.97;57.24;101059.97;5134440;27;20030;-66
2022/12/26 02:25:05;;;;;;;28.67;17.37;;;;;;;17.44;56.09;101049.53;5134179;27;20023;-66
2022/12/26 02:27:39;;;;;;;31.83;17.77;;;;;;;17.27;56.64;101042.22;5116114;27;20060;-66
2022/12/26 02:30:20;;;;;;;31.30;18.87;;;;;;;17.35;56.85;101041.97;5114838;27;20045;-65
2022/12/26 02:32:55;;;;;;;31.10;18.13;;;;;;;17.67;54.54;101039.94;5133668;27;20031;-66
2022/12/26 02:35:50;;;;;;;31.80;18.40;;;;;;;17.49;55.71;101038.81;5115708;27;20394;-66
2022/12/26 02:38:39;;;;;;;31.53;18.30;;;;;;;16.36;60.06;101042.53;5114801;27;20048;-66
2022/12/26 02:41:04;;;;;;;31.60;18.70;;;;;;;16.66;58.00;101054.78;5114962;27;20050;-66
2022/12/26 02:43:40;;;;;;;33.37;20.60;;;;;;;17.95;54.58;101055.66;5133916;27;20124;-66
2022/12/26 03:13:09;;;;;;;33.97;19.40;;;;;;;17.81;55.33;101057.94;5132337;27;20172;-66
2022/12/26 03:18:36;;;;;;;38.53;21.80;;;;;;;17.02;56.20;101047.47;5048456;28;20163;-66
2022/12/26 03:21:04;;;;;;;38.67;21.93;;;;;;;16.55;57.93;101047.22;5090974;28;20046;-66
2022/12/26 03:23:31;;;;;;;35.33;21.20;;;;;;;15.09;63.49;101048.63;5094583;28;20022;-66
2022/12/26 03:26:46;;;;;;;34.47;20.70;;;;;;;15.51;61.29;101047.56;5113467;28;20027;-66
2022/12/26 03:28:48;;;;;;;37.53;20.90;;;;;;;16.67;57.85;101046.81;5106359;27;20114;-66
2022/12/26 03:31:14;;;;;;;36.37;19.93;;;;;;;16.62;58.16;101038.19;5110910;27;20115;-66
2022/12/26 03:36:50;;;;;;;33.40;18.67;;;;;;;16.75;57.31;101039.50;5132193;27;20465;-66
2022/12/26 04:19:31;;;;;;;19.47;11.60;;;;;;;15.54;61.24;101063.28;5131234;27;20038;-69
2022/12/26 04:44:57;;;;;;;15.87;8.33;;;;;;;15.76;58.38;101031.94;5127951;27;20061;-66
2022/12/26 04:47:22;;;;;;;16.27;7.70;;;;;;;15.41;60.08;101041.69;5131992;27;20561;-66
2022/12/26 04:55:16;;;;;;;14.90;7.63;;;;;;;15.96;58.46;101038.41;5111356;28;20074;-66
2022/12/26 04:57:42;;;;;;;15.47;8.20;;;;;;;16.36;56.70;101037.25;5110010;27;20038;-66
2022/12/26 05:00:08;;;;;;;13.73;7.50;;;;;;;15.66;59.04;101040.13;5112718;27;20370;-66
2022/12/26 05:11:06;;;;;;;14.63;6.33;;;;;;;15.91;57.05;101035.94;5066927;28;20048;-66
2022/12/26 05:13:31;;;;;;;10.23;6.53;;;;;;;15.27;61.76;101033.28;5051069;28;20030;-66
2022/12/26 05:29:37;;;;;;;9.87;5.80;;;;;;;14.71;65.12;101045.19;5130408;28;20449;-66
2022/12/26 05:32:02;;;;;;;10.93;5.30;;;;;;;15.02;62.40;101033.91;5117686;27;20035;-66
2022/12/26 05:34:27;;;;;;;11.33;5.80;;;;;;;15.42;62.60;101032.84;5138102;27;20391;-66
2022/12/26 05:36:57;;;;;;;6.97;5.23;;;;;;;14.78;63.49;101040.63;5136836;27;20080;-66
2022/12/26 05:39:22;;;;;;;8.10;4.67;;;;;;;15.99;60.81;101035.72;5120253;27;20039;-66
2022/12/26 05:41:48;;;;;;;10.23;5.97;;;;;;;16.49;58.36;101026.31;5137196;27;20027;-66
2022/12/26 05:44:13;;;;;;;10.90;5.47;;;;;;;15.57;60.39;101030.72;5118713;27;20023;-66
2022/12/26 05:46:41;;;;;;;11.20;6.00;;;;;;;15.88;60.37;101035.13;5102585;27;20114;-66
2022/12/26 05:49:07;;;;;;;9.60;6.37;;;;;;;15.76;61.11;101031.94;5137648;27;20038;-66
2022/12/26 05:51:33;;;;;;;13.03;7.23;;;;;;;15.77;59.83;101023.13;5135908;27;20056;-66
2022/12/26 05:53:58;;;;;;;12.57;7.07;;;;;;;15.58;61.32;101019.28;5137368;27;20074;-66
2022/12/26 05:56:24;;;;;;;10.13;6.23;;;;;;;15.18;62.75;101022.97;5120132;27;20087;-66
2022/12/26 05:58:55;;;;;;;12.80;6.90;;;;;;;14.99;62.95;101026.09;5135925;27;20027;-66
2022/12/26 06:01:20;;;;;;;11.37;6.30;;;;;;;14.71;64.81;101029.41;5118099;27;20571;-66
2022/12/26 06:03:49;;;;;;;14.50;7.93;;;;;;;15.18;64.34;101026.50;5102120;27;20047;-66
2022/12/26 06:06:15;;;;;;;11.47;7.27;;;;;;;16.62;56.69;101028.50;5120148;27;20431;-66
2022/12/26 06:08:41;;;;;;;10.97;7.40;;;;;;;15.70;59.71;101036.50;5137727;27;20169;-66
2022/12/26 06:11:10;;;;;;;12.27;7.20;;;;;;;14.82;63.11;101025.66;5135387;27;20105;-66
2022/12/26 06:13:36;;;;;;;10.07;6.83;;;;;;;14.89;62.86;101040.38;5134418;27;20120;-66
2022/12/26 06:16:07;;;;;;;12.73;6.63;;;;;;;15.09;62.77;101035.47;5119173;27;20042;-66
2022/12/26 06:18:33;;;;;;;13.83;7.07;;;;;;;15.58;60.98;101035.09;5118928;27;20489;-66
2022/12/26 06:20:58;;;;;;;10.53;6.37;;;;;;;14.53;65.39;101045.59;5137486;27;20079;-67
2022/12/26 06:23:24;;;;;;;12.77;6.27;;;;;;;14.45;66.43;101043.13;5119869;27;20389;-66
2022/12/26 06:25:56;;;;;;;12.53;6.60;;;;;;;14.96;64.68;101028.81;5136687;27;20031;-67
2022/12/26 06:28:22;;;;;;;12.20;6.10;;;;;;;15.17;63.19;101039.69;5119772;27;20547;-66
2022/12/26 06:30:47;;;;;;;8.10;5.70;;;;;;;15.26;62.20;101042.06;5135608;27;20485;-66
2022/12/26 06:33:13;;;;;;;8.53;5.83;;;;;;;15.28;60.94;101042.91;5135679;27;20031;-67
2022/12/26 06:35:38;;;;;;;12.23;6.03;;;;;;;15.30;62.74;101041.09;5137594;27;20027;-67
2022/12/26 06:38:04;;;;;;;9.67;6.10;;;;;;;15.53;62.07;101035.19;5138172;27;20033;-66
2022/12/26 06:40:29;;;;;;;13.97;7.03;;;;;;;15.98;59.93;101041.88;5116756;27;20023;-66
2022/12/26 06:42:54;;;;;;;11.70;7.47;;;;;;;15.69;61.05;101035.66;5136470;27;20125;-66
2022/12/26 06:45:20;;;;;;;11.90;6.67;;;;;;;15.86;59.23;101042.25;5133250;27;20110;-66
2022/12/26 06:47:45;;;;;;;8.43;5.53;;;;;;;16.09;59.26;101039.78;5134177;27;20398;-66
2022/12/26 06:50:11;;;;;;;7.50;4.70;;;;;;;15.20;62.48;101031.72;5131661;27;20019;-67
2022/12/26 06:52:36;;;;;;;9.87;5.10;;;;;;;15.00;63.36;101035.72;5135290;27;20027;-66
2022/12/26 06:55:02;;;;;;;8.37;5.10;;;;;;;15.31;62.15;101041.97;5115346;27;20514;-66
2022/12/26 06:57:28;;;;;;;12.20;4.80;;;;;;;15.22;63.66;101056.22;5134973;27;20023;-66
2022/12/26 06:59:53;;;;;;;13.97;5.00;;;;;;;15.34;60.81;101048.00;5130556;27;20080;-66
2022/12/26 07:02:19;;;;;;;10.40;4.37;;;;;;;14.64;64.25;101048.84;5133022;27;20024;-66
2022/12/26 07:04:44;;;;;;;10.80;4.47;;;;;;;14.49;63.78;101051.81;5133363;27;20402;-66
2022/12/26 07:07:09;;;;;;;9.33;4.93;;;;;;;15.74;61.69;101046.06;5129821;27;20110;-67
2022/12/26 07:09:35;;;;;;;10.73;5.20;;;;;;;15.36;62.98;101055.84;5131760;27;20068;-66
2022/12/26 07:12:00;;;;;;;7.93;4.77;;;;;;;16.39;58.57;101047.69;5134451;27;20034;-66
2022/12/26 07:14:25;;;;;;;9.67;4.73;;;;;;;16.04;59.72;101049.59;5113331;27;20084;-66
2022/12/26 07:16:51;;;;;;;7.83;4.57;;;;;;;16.01;58.88;101041.78;5114892;27;20023;-66
2022/12/26 07:19:16;;;;;;;11.93;4.60;;;;;;;15.44;61.25;101035.44;5132811;27;20076;-66
2022/12/26 07:21:42;;;;;;;9.30;3.97;;;;;;;14.48;65.43;101042.19;5113476;27;20112;-66
2022/12/26 07:24:19;;;;;;;7.40;3.77;;;;;;;15.44;63.52;101035.44;5132554;27;20023;-66
2022/12/26 07:26:45;;;;;;;8.00;4.27;;;;;;;15.20;61.73;101053.63;5111087;27;20441;-67
2022/12/26 07:29:14;;;;;;;6.33;3.37;;;;;;;14.99;61.96;101054.16;5109360;27;20111;-66
2022/12/26 07:31:40;;;;;;;11.13;4.03;;;;;;;14.93;67.34;101050.81;5114433;27;20027;-66
2022/12/26 07:34:06;;;;;;;8.07;3.63;;;;;;;15.13;64.61;101069.63;5130722;27;20019;-66
2022/12/26 07:36:32;;;;;;;11.03;4.37;;;;;;;15.03;65.08;101038.28;5130986;27;20072;-66
2022/12/26 07:38:57;;;;;;;6.17;3.43;;;;;;;15.37;66.02;101070.75;5112228;27;20027;-67
2022/12/26 07:44:08;;;;;;;12.17;4.77;;;;;;;15.04;69.77;101061.06;5129793;27;20087;-66
2022/12/26 07:46:34;;;;;;;10.73;4.57;;;;;;;15.77;65.12;101064.41;5112530;27;20075;-66
2022/12/26 07:48:59;;;;;;;11.27;5.23;;;;;;;16.12;62.77;101054.66;5114739;27;20019;-67
2022/12/26 07:51:26;;;;;;;7.83;4.30;;;;;;;15.68;64.56;101057.63;5128752;27;20402;-67
2022/12/26 07:53:51;;;;;;;12.10;6.00;;;;;;;15.86;63.68;101068.59;5130555;27;20024;-68
2022/12/26 07:56:17;;;;;;;13.67;5.77;;;;;;;15.77;63.13;101081.09;5127105;27;20038;-67
2022/12/26 07:58:42;;;;;;;10.50;4.53;;;;;;;16.03;63.40;101061.09;5132777;27;20031;-67
2022/12/26 08:01:08;;;;;;;6.60;4.33;;;;;;;16.34;59.84;101062.78;5131291;27;20023;-68
2022/12/26 08:03:34;;;;;;;7.10;4.70;;;;;;;15.70;63.59;101069.00;5110493;27;20398;-68
2022/12/26 08:05:59;;;;;;;10.50;4.27;;;;;;;15.66;64.19;101062.09;5126109;27;20035;-68
2022/12/26 08:08:25;;;;;;;7.43;4.00;;;;;;;15.41;64.75;101062.75;5114082;27;20035;-68
2022/12/26 08:10:59;;;;;;;6.90;4.33;;;;;;;15.86;65.21;101076.50;5129780;27;20019;-68
2022/12/26 08:13:24;;;;;;;9.87;4.00;;;;;;;14.97;67.05;101079.66;5114503;27;20038;-68
2022/12/26 08:15:49;;;;;;;7.13;4.00;;;;;;;15.38;64.65;101083.88;5112762;27;20023;-68
2022/12/26 08:18:15;;;;;;;14.97;4.60;;;;;;;16.29;62.06;101104.25;5093541;27;20060;-68
2022/12/26 08:20:40;;;;;;;14.30;4.13;;;;;;;15.55;63.74;101106.28;5127941;27;20398;-68
2022/12/26 08:23:05;;;;;;;11.60;4.00;;;;;;;15.41;63.38;101099.63;5128540;27;20027;-69
2022/12/26 08:25:31;;;;;;;7.40;4.07;;;;;;;15.87;62.71;101123.06;5127859;27;20050;-68
2022/12/26 08:27:57;;;;;;;8.23;4.27;;;;;;;15.89;63.90;101143.16;5110599;27;20031;-67
2022/12/26 08:30:23;;;;;;;8.90;4.30;;;;;;;15.18;67.46;101165.16;5130754;27;20505;-67
2022/12/26 08:32:50;;;;;;;11.47;4.50;;;;;;;16.48;61.84;101149.44;5129173;27;20023;-67
2022/12/26 08:35:15;;;;;;;13.07;5.07;;;;;;;16.95;59.24;101146.28;5114098;27;20023;-67
2022/12/26 08:37:41;;;;;;;13.80;4.60;;;;;;;15.98;60.80;101152.63;5110543;27;20388;-66
2022/12/26 08:40:07;;;;;;;8.23;4.70;;;;;;;15.91;60.36;101158.97;5127634;27;20057;-66
2022/12/26 08:42:33;;;;;;;13.23;5.50;;;;;;;17.05;57.78;101153.00;5114229;27;20546;-66
2022/12/26 08:44:58;;;;;;;8.07;4.43;;;;;;;16.39;60.21;101157.59;5129483;27;20094;-66
2022/12/26 08:47:26;;;;;;;10.70;3.83;;;;;;;15.81;60.29;101168.00;5130685;27;20034;-66
2022/12/26 08:49:51;;;;;;;11.53;3.17;;;;;;;14.97;62.16;101177.06;5111883;27;20035;-66
2022/12/26 08:52:17;;;;;;;11.87;3.70;;;;;;;15.82;62.82;101183.78;5132276;27;20518;-66
2022/12/26 08:54:42;;;;;;;9.03;2.80;;;;;;;16.55;59.75;101187.06;5131442;27;20535;-66
2022/12/26 08:57:08;;;;;;;10.60;2.60;;;;;;;15.87;61.63;101194.22;5112704;27;20110;-66
2022/12/26 08:59:33;;;;;;;6.93;2.23;;;;;;;15.88;62.54;101209.09;5125569;27;20015;-66
2022/12/26 09:01:59;;;;;;;11.17;1.97;;;;;;;15.87;63.16;101210.03;5128192;27;20114;-66
2022/12/26 09:04:24;;;;;;;8.20;1.87;;;;;;;15.94;59.85;101209.81;5128470;27;20371;-66
2022/12/26 09:06:49;;;;;;;16.57;2.10;;;;;;;15.92;61.32;101216.03;5111255;27;20023;-66
2022/12/26 09:09:15;;;;;;;17.67;2.13;;;;;;;14.85;64.02;101246.63;5121861;27;20035;-66
2022/12/26 09:11:41;;;;;;;12.23;1.60;;;;;;;14.58;65.31;101246.28;5093299;27;20023;-67
2022/12/26 09:14:07;;;;;;;13.03;2.70;;;;;;;15.59;62.60;101256.38;5107761;27;20493;-66
2022/12/26 09:16:37;;;;;;;14.93;3.00;;;;;;;15.51;62.03;101247.78;5119926;27;20096;-66
2022/12/26 09:19:04;;;;;;;17.80;2.53;;;;;;;14.89;62.95;101269.34;5125603;27;20031;-66
2022/12/26 09:21:30;;;;;;;17.57;2.00;;;;;;;15.49;61.83;101285.59;5121691;27;20023;-66
2022/12/26 09:24:02;;;;;;;18.17;2.30;;;;;;;14.63;60.85;101297.06;5103090;28;20135;-66
2022/12/26 09:26:28;;;;;;;9.57;2.60;;;;;;;14.57;58.21;101302.41;5101985;27;20080;-65
2022/12/26 09:28:54;;;;;;;11.87;2.13;;;;;;;15.34;56.60;101303.47;5099782;28;20034;-65
2022/12/26 09:31:21;;;;;;;9.00;1.43;;;;;;;14.87;55.52;101323.78;5100218;28;20026;-66
2022/12/26 09:33:47;;;;;;;9.03;1.77;;;;;;;14.84;54.11;101329.13;5111396;28;20031;-65
2022/12/26 09:36:17;;;;;;;12.10;1.97;;;;;;;14.08;55.77;101344.47;5100533;28;20042;-65
2022/12/26 09:38:44;;;;;;;7.93;1.53;;;;;;;13.94;56.27;101353.47;5119481;27;20039;-65
2022/12/26 09:41:43;;;;;;;8.63;2.37;;;;;;;14.11;55.43;101358.44;5113838;28;20031;-68
2022/12/26 09:44:18;;;;;;;8.63;1.23;;;;;;;15.03;53.88;101366.44;5111020;28;20072;-68
2022/12/26 09:47:03;;;;;;;9.60;1.50;;;;;;;14.79;51.99;101365.19;5095886;28;20106;-65
2022/12/26 09:49:49;;;;;;;13.37;3.10;;;;;;;15.50;52.60;101382.16;5102636;28;20043;-65
2022/12/26 09:52:21;;;;;;;19.70;2.47;;;;;;;14.43;53.58;101376.31;5097723;28;20391;-66
2022/12/26 09:54:53;;;;;;;16.90;2.37;;;;;;;15.83;50.67;101390.25;5101775;28;20085;-68
2022/12/26 09:57:40;;;;;;;11.65;1.92;;;;;;;14.35;51.72;101400.09;5099967;28;20030;-65
2022/12/26 10:00:06;;;;;;;12.97;2.27;;;;;;;14.39;52.49;101408.81;5099149;28;20027;-68
2022/12/26 10:02:33;;;;;;;9.80;1.80;;;;;;;14.54;51.76;101405.91;5121532;28;20183;-68
2022/12/26 10:04:59;;;;;;;14.43;1.80;;;;;;;16.22;48.00;101404.22;5120612;28;20086;-68
2022/12/26 10:07:34;;;;;;;11.47;1.70;;;;;;;14.04;50.96;101411.13;5117913;28;20076;-65
2022/12/26 10:10:40;;;;;;;11.20;1.63;;;;;;;14.85;51.31;101415.03;5107878;28;20055;-65
2022/12/26 10:13:06;;;;;;;10.90;1.50;;;;;;;14.24;51.27;101429.19;5103099;28;20050;-68
2022/12/26 10:15:56;;;;;;;11.30;2.03;;;;;;;14.81;51.00;101426.53;5120262;28;20343;-66
2022/12/26 10:18:27;;;;;;;13.10;1.73;;;;;;;14.31;50.82;101426.47;5119288;27;20034;-66
2022/12/26 10:21:11;;;;;;;7.63;2.20;;;;;;;15.19;49.04;101420.53;5119244;27;20035;-66
2022/12/26 10:23:40;;;;;;;9.07;1.40;;;;;;;14.76;48.94;101435.38;5104039;28;20088;-66
2022/12/26 10:26:17;;;;;;;19.27;1.90;;;;;;;15.25;47.72;101430.09;5102482;27;20035;-66
2022/12/26 10:28:48;;;;;;;12.60;1.73;;;;;;;15.15;47.59;101426.75;5073830;27;20031;-66
2022/12/26 10:31:36;;;;;;;12.67;1.60;;;;;;;14.40;47.99;101429.81;5118074;27;20489;-66
2022/12/26 10:34:20;;;;;;;13.27;1.70;;;;;;;14.72;47.38;101428.44;5123954;27;20031;-66
2022/12/26 10:37:23;;;;;;;14.63;1.80;;;;;;;15.27;46.39;101433.56;5100019;28;20030;-66
2022/12/26 10:40:19;;;;;;;9.63;2.13;;;;;;;13.87;48.20;101450.75;5097474;28;20399;-66
2022/12/26 10:42:50;;;;;;;11.37;1.40;;;;;;;13.62;49.38;101455.50;5119692;27;20027;-65
2022/12/26 10:45:26;;;;;;;15.70;2.20;;;;;;;14.61;47.73;101456.66;5097679;27;20090;-66
2022/12/26 10:47:53;;;;;;;8.60;2.23;;;;;;;13.65;48.81;101470.34;5096947;27;20031;-66
2022/12/26 10:50:25;;;;;;;18.07;4.47;;;;;;;14.01;47.87;101479.50;5104232;27;20023;-66
2022/12/26 10:52:50;;;;;;;7.60;2.17;;;;;;;14.57;47.71;101483.91;5118176;27;20035;-66
2022/12/26 10:55:18;;;;;;;11.20;3.10;;;;;;;13.55;47.86;101491.47;5125623;27;20077;-66
2022/12/26 10:57:49;;;;;;;6.70;1.60;;;;;;;13.59;47.83;101492.31;5107568;27;20023;-66
2022/12/26 11:00:20;;;;;;;11.77;1.53;;;;;;;14.42;47.11;101491.16;5126114;27;20073;-66
2022/12/26 11:03:02;;;;;;;6.70;1.40;;;;;;;13.96;46.16;101490.94;5126368;27;20028;-66
2022/12/26 11:05:27;;;;;;;4.90;1.77;;;;;;;15.02;44.70;101491.94;5121255;27;20043;-65
2022/12/26 11:08:06;;;;;;;5.90;1.43;;;;;;;14.56;44.51;101497.94;5114498;27;20038;-65
2022/12/26 11:10:32;;;;;;;5.27;1.97;;;;;;;14.27;45.08;101501.03;5116360;27;20062;-65
2022/12/26 11:13:01;;;;;;;6.57;1.60;;;;;;;13.97;45.73;101509.34;5124327;27;20624;-65
2022/12/26 11:15:46;;;;;;;9.43;1.87;;;;;;;13.65;45.93;101513.22;5129577;27;20080;-65
2022/12/26 11:18:22;;;;;;;8.03;1.80;;;;;;;13.63;46.12;101515.03;5116261;27;20322;-65
2022/12/26 11:20:48;;;;;;;7.37;1.73;;;;;;;14.14;45.16;101506.47;5127703;27;20068;-65
2022/12/26 11:23:27;;;;;;;5.73;1.60;;;;;;;13.94;45.21;101524.28;5082130;27;20115;-65
2022/12/26 11:25:59;;;;;;;5.90;1.23;;;;;;;13.99;44.47;101527.72;5126286;27;20026;-65
2022/12/26 11:28:33;;;;;;;13.53;1.87;;;;;;;14.33;44.20;101522.88;5111388;27;20031;-65
2022/12/26 11:31:05;;;;;;;6.63;2.10;;;;;;;14.72;43.54;101530.19;5091362;28;20023;-65
2022/12/26 11:33:35;;;;;;;6.20;1.60;;;;;;;15.00;42.88;101541.13;5104236;27;20019;-64
2022/12/26 11:36:09;;;;;;;6.37;1.63;;;;;;;14.14;44.20;101542.44;5106216;27;20027;-65
2022/12/26 11:38:54;;;;;;;12.90;2.20;;;;;;;14.56;43.15;101543.56;5106053;27;20029;-65
2022/12/26 11:41:31;;;;;;;9.57;1.93;;;;;;;14.73;42.21;101538.06;5123255;27;20027;-66
2022/12/26 11:44:09;;;;;;;10.10;2.30;;;;;;;15.09;42.72;101540.94;5105408;27;20061;-66
2022/12/26 11:46:46;;;;;;;11.90;2.10;;;;;;;15.57;41.58;101536.59;5117394;27;20023;-65
2022/12/26 11:49:20;;;;;;;7.90;2.23;;;;;;;15.48;42.20;101536.75;5115190;27;20068;-66
2022/12/26 11:51:48;;;;;;;7.60;2.20;;;;;;;14.30;43.99;101546.59;5121423;27;20399;-65
2022/12/26 11:54:50;;;;;;;5.00;1.53;;;;;;;13.75;44.73;101550.75;5122853;27;20501;-66
2022/12/26 11:57:21;;;;;;;10.57;2.10;;;;;;;13.73;44.97;101553.41;5106031;27;20084;-65
2022/12/26 11:59:49;;;;;;;7.93;1.13;;;;;;;13.92;45.34;101547.97;5113583;27;20035;-65
2022/12/26 12:02:24;;;;;;;8.23;2.13;;;;;;;13.62;45.90;101544.81;5110852;27;20023;-65
2022/12/26 12:04:54;;;;;;;5.57;2.00;;;;;;;14.18;44.67;101547.59;5120416;27;20371;-66
2022/12/26 12:07:58;;;;;;;5.83;1.43;;;;;;;14.41;43.88;101551.66;5101017;28;20034;-66
2022/12/26 12:10:49;;;;;;;7.33;1.00;;;;;;;14.84;42.71;101550.19;5041286;28;20611;-66
2022/12/26 12:13:30;;;;;;;7.30;1.13;;;;;;;13.97;42.74;101559.28;5099856;27;20027;-66
2022/12/26 12:16:48;;;;;;;6.70;1.13;;;;;;;14.05;42.68;101573.19;5101863;27;20031;-66
2022/12/26 12:19:26;;;;;;;1.03;0.67;;;;;;;13.82;41.72;101573.47;5081666;27;20113;-66
2022/12/26 12:22:20;;;;;;;3.03;0.83;;;;;;;14.17;41.81;101573.94;5114444;27;20031;-66
2022/12/26 12:24:54;;;;;;;;;;;;;;;13.53;42.63;101576.41;5119980;27;20039;-65
2022/12/26 12:27:23;;;;;;;3.03;0.80;;;;;;;13.40;42.43;101580.94;5123936;27;19921;-66
2022/12/26 12:30:02;;;;;;;4.23;1.10;;;;;;;14.33;41.62;101579.81;5125624;27;20026;-66
2022/12/26 12:32:52;;;;;;;3.97;1.07;;;;;;;12.88;42.23;101587.47;5111184;27;20030;-66
2022/12/26 12:35:25;;;;;;;5.63;0.80;;;;;;;14.10;41.07;101586.28;5118511;27;20033;-66
2022/12/26 12:38:09;;;;;;;;;;;;;;;14.82;40.08;101583.53;5092885;27;20038;-66
2022/12/26 12:41:03;;;;;;;6.30;0.90;;;;;;;13.06;42.31;101591.69;5117577;27;19990;-66
2022/12/26 12:43:50;;;;;;;4.40;0.77;;;;;;;13.70;42.00;101585.00;5112785;27;20105;-66
2022/12/26 12:46:18;;;;;;;5.10;0.87;;;;;;;14.14;41.05;101595.00;5119835;27;20031;-66
2022/12/26 12:48:56;;;;;;;2.23;0.70;;;;;;;13.01;43.47;101597.00;5094149;27;20036;-65
2022/12/26 12:51:34;;;;;;;4.47;1.07;;;;;;;13.63;43.32;101590.31;5101000;27;20122;-66
2022/12/26 12:54:21;;;;;;;9.37;1.50;;;;;;;14.71;41.59;101589.84;5118558;27;20035;-66
2022/12/26 12:56:55;;;;;;;6.97;1.20;;;;;;;14.10;42.64;101598.56;5104555;27;20037;-67
2022/12/26 12:59:33;;;;;;;6.47;1.20;;;;;;;12.76;44.71;101598.91;5128195;27;20027;-66
2022/12/26 13:02:04;;;;;;;7.37;1.00;;;;;;;13.72;43.17;101604.25;5097638;27;20152;-67
2022/12/26 13:04:38;;;;;;;5.03;0.93;;;;;;;13.60;43.33;101620.13;5118874;27;20454;-67
2022/12/26 13:07:10;;;;;;;3.90;0.90;;;;;;;13.28;43.39;101623.03;5095756;28;20043;-67
2022/12/26 13:09:44;;;;;;;9.48;1.40;;;;;;;12.98;45.03;101614.50;5114357;27;20034;-67
2022/12/26 13:12:27;;;;;;;6.40;1.40;;;;;;;14.21;42.14;101622.94;5100753;27;20057;-67
2022/12/26 13:15:00;;;;;;;4.20;1.25;;;;;;;14.23;41.79;101629.03;5116348;27;20027;-67
2022/12/26 13:17:32;;;;;;;3.63;1.00;;;;;;;13.72;42.30;101638.41;5116671;27;20035;-67
2022/12/26 13:20:22;;;;;;;4.27;1.07;;;;;;;14.27;42.70;101632.53;5118150;27;20031;-67
2022/12/26 13:25:44;;;;;;;5.57;1.50;;;;;;;14.06;42.28;101638.00;5122262;27;20050;-67
2022/12/26 13:28:18;;;;;;;11.17;1.10;;;;;;;13.71;40.50;101644.53;5113590;27;20072;-67
2022/12/26 13:30:43;;;;;;;5.13;1.17;;;;;;;13.91;40.53;101635.56;5116247;28;20053;-66
2022/12/26 13:33:13;;;;;;;5.03;1.33;;;;;;;13.82;40.72;101635.66;5125349;28;20035;-66
2022/12/26 13:36:00;;;;;;;7.13;1.20;;;;;;;13.31;40.17;101639.63;5121644;28;20027;-67
2022/12/26 13:38:57;;;;;;;6.10;0.87;;;;;;;13.10;40.75;101645.03;5123192;27;20118;-67
2022/12/26 13:44:18;;;;;;;14.00;2.60;;;;;;;14.05;39.25;101649.44;5108003;27;20065;-67
2022/12/26 13:46:46;;;;;;;10.77;2.80;;;;;;;14.43;38.44;101652.47;5112364;27;20043;-67
2022/12/26 13:49:37;;;;;;;8.97;2.73;;;;;;;14.32;38.54;101663.13;5117256;28;20030;-67
2022/12/26 13:52:09;;;;;;;6.00;2.33;;;;;;;14.03;39.73;101656.44;5103683;27;20038;-66